createdAt,value
2023-02-27T00:01:40.116Z,4.51
2023-02-27T00:04:06.420Z,4.57
2023-02-27T00:06:35.531Z,4.68
2023-02-27T00:09:01.865Z,4.76
2023-02-27T00:11:28.655Z,4.55
2023-02-27T00:13:55.131Z,4.57
2023-02-27T00:16:21.467Z,4.67
2023-02-27T00:18:47.734Z,4.64
2023-02-27T00:21:13.990Z,4.80
2023-02-27T00:23:40.245Z,5.06
2023-02-27T00:26:06.503Z,4.97
2023-02-27T00:28:32.757Z,4.84
2023-02-27T00:30:59.106Z,4.48
2023-02-27T00:33:25.421Z,4.63
2023-02-27T00:35:51.681Z,4.72
2023-02-27T00:38:17.923Z,4.39
2023-02-27T00:40:44.171Z,4.79
2023-02-27T00:43:10.406Z,4.77
2023-02-27T00:45:36.672Z,4.68
2023-02-27T00:48:02.959Z,4.60
2023-02-27T00:50:29.252Z,4.74
2023-02-27T00:52:55.518Z,4.73
2023-02-27T00:55:21.771Z,4.81
2023-02-27T00:57:48.053Z,4.54
2023-02-27T01:00:14.438Z,4.70
2023-02-27T01:02:40.720Z,4.66
2023-02-27T01:05:06.993Z,4.87
2023-02-27T01:07:33.374Z,4.67
2023-02-27T01:09:59.625Z,4.68
2023-02-27T01:12:25.873Z,4.70
2023-02-27T01:14:52.119Z,4.73
2023-02-27T01:17:18.352Z,4.98
2023-02-27T01:19:44.615Z,5.08
2023-02-27T01:22:10.877Z,4.89
2023-02-27T01:24:37.128Z,4.93
2023-02-27T01:27:03.397Z,4.92
2023-02-27T01:29:29.640Z,4.81
2023-02-27T01:31:56.014Z,4.84
2023-02-27T01:34:22.321Z,4.93
2023-02-27T01:36:48.588Z,4.85
2023-02-27T01:39:14.832Z,4.96
2023-02-27T01:41:41.103Z,4.98
2023-02-27T01:44:07.382Z,4.89
2023-02-27T01:46:33.643Z,5.27
2023-02-27T01:48:59.906Z,5.05
2023-02-27T01:51:26.448Z,5.04
2023-02-27T01:53:52.838Z,4.83
2023-02-27T01:56:19.082Z,4.72
2023-02-27T01:58:45.327Z,5.06
2023-02-27T02:01:11.637Z,4.83
2023-02-27T02:03:37.928Z,4.79
2023-02-27T02:06:04.194Z,5.01
2023-02-27T02:08:30.452Z,5.26
2023-02-27T02:10:56.722Z,5.39
2023-02-27T02:13:22.972Z,5.02
2023-02-27T02:15:49.236Z,4.95
2023-02-27T02:18:15.474Z,5.35
2023-02-27T02:20:41.734Z,5.01
2023-02-27T02:23:07.990Z,5.16
2023-02-27T02:25:34.253Z,5.38
2023-02-27T02:28:00.509Z,5.10
2023-02-27T02:30:26.827Z,5.14
2023-02-27T02:32:53.138Z,5.12
2023-02-27T02:35:19.388Z,5.27
2023-02-27T02:37:45.628Z,5.53
2023-02-27T02:40:11.872Z,5.37
2023-02-27T02:42:38.150Z,5.35
2023-02-27T02:45:04.404Z,5.13
2023-02-27T02:47:30.643Z,5.37
2023-02-27T02:49:56.911Z,5.26
2023-02-27T02:52:26.026Z,5.24
2023-02-27T02:54:52.301Z,5.34
2023-02-27T02:57:18.542Z,5.26
2023-02-27T02:59:44.789Z,5.31
2023-02-27T03:02:11.026Z,5.40
2023-02-27T03:04:37.344Z,5.39
2023-02-27T03:07:03.609Z,5.32
2023-02-27T03:09:29.898Z,5.74
2023-02-27T03:11:56.146Z,5.89
2023-02-27T03:14:22.387Z,5.73
2023-02-27T03:16:48.669Z,5.44
2023-02-27T03:19:14.917Z,5.31
2023-02-27T03:21:41.195Z,5.40
2023-02-27T03:24:07.457Z,5.57
2023-02-27T03:26:33.726Z,5.50
2023-02-27T03:28:59.967Z,5.67
2023-02-27T03:31:26.734Z,5.15
2023-02-27T03:33:53.218Z,5.21
2023-02-27T03:36:19.466Z,5.58
2023-02-27T03:38:45.705Z,5.63
2023-02-27T03:41:11.967Z,5.76
2023-02-27T03:43:38.223Z,5.73
2023-02-27T03:46:04.496Z,5.56
2023-02-27T03:48:30.774Z,5.81
2023-02-27T03:50:57.020Z,5.56
2023-02-27T03:53:23.280Z,5.70
2023-02-27T03:55:49.535Z,5.54
2023-02-27T03:58:15.800Z,5.74
2023-02-27T04:00:42.061Z,5.83
2023-02-27T04:03:08.350Z,5.87
2023-02-27T04:05:34.602Z,5.86
2023-02-27T04:08:00.864Z,5.72
2023-02-27T04:10:27.140Z,5.87
2023-02-27T04:12:53.456Z,5.80
2023-02-27T04:15:19.699Z,5.83
2023-02-27T04:17:45.953Z,5.98
2023-02-27T04:20:12.208Z,5.84
2023-02-27T04:22:38.470Z,6.00
2023-02-27T04:25:04.733Z,5.86
2023-02-27T04:27:30.993Z,6.14
2023-02-27T04:29:57.252Z,5.99
2023-02-27T04:32:23.572Z,5.71
2023-02-27T04:34:49.868Z,6.04
2023-02-27T04:37:16.112Z,6.29
2023-02-27T04:39:42.457Z,5.90
2023-02-27T04:42:08.702Z,5.92
2023-02-27T04:44:34.963Z,5.96
2023-02-27T04:47:01.225Z,5.72
2023-02-27T04:49:27.461Z,6.10
2023-02-27T04:51:53.721Z,6.04
2023-02-27T04:54:19.961Z,5.70
2023-02-27T04:56:46.201Z,5.92
2023-02-27T04:59:12.450Z,6.07
2023-02-27T05:01:38.755Z,5.93
2023-02-27T05:04:05.016Z,5.72
2023-02-27T05:06:31.293Z,6.26
2023-02-27T05:08:57.572Z,6.00
2023-02-27T05:11:23.841Z,5.87
2023-02-27T05:13:50.096Z,5.87
2023-02-27T05:16:16.396Z,6.17
2023-02-27T05:18:42.658Z,6.00
2023-02-27T05:21:08.922Z,6.24
2023-02-27T05:23:35.185Z,6.04
2023-02-27T05:26:01.442Z,6.07
2023-02-27T05:28:27.697Z,6.18
2023-02-27T05:30:53.945Z,6.08
2023-02-27T05:33:20.206Z,6.44
2023-02-27T05:35:46.492Z,6.29
2023-02-27T05:38:12.741Z,6.22
2023-02-27T05:40:39.003Z,5.95
2023-02-27T05:43:06.453Z,6.20
2023-02-27T05:45:32.742Z,6.13
2023-02-27T05:47:59.010Z,6.41
2023-02-27T05:50:25.264Z,6.13
2023-02-27T05:52:51.523Z,6.51
2023-02-27T05:55:18.932Z,6.35
2023-02-27T05:57:45.304Z,6.05
2023-02-27T06:00:11.561Z,6.18
2023-02-27T06:02:37.811Z,6.01
2023-02-27T06:05:04.060Z,6.01
2023-02-27T06:07:30.294Z,6.12
2023-02-27T06:09:56.542Z,6.08
2023-02-27T06:12:22.778Z,6.45
2023-02-27T06:14:49.127Z,6.12
2023-02-27T06:17:15.398Z,6.05
2023-02-27T06:19:41.675Z,6.15
2023-02-27T06:22:07.914Z,6.26
2023-02-27T06:24:34.157Z,6.19
2023-02-27T06:27:00.498Z,6.33
2023-02-27T06:29:26.752Z,6.00
2023-02-27T06:31:53.077Z,6.18
2023-02-27T06:34:19.357Z,6.10
2023-02-27T06:36:45.621Z,5.89
2023-02-27T06:39:11.875Z,6.54
2023-02-27T06:41:38.148Z,6.49
2023-02-27T06:44:04.428Z,6.23
2023-02-27T06:46:30.938Z,6.46
2023-02-27T06:48:57.291Z,5.91
2023-02-27T06:51:23.634Z,6.01
2023-02-27T06:53:50.015Z,6.51
2023-02-27T06:56:16.274Z,6.24
2023-02-27T06:58:42.540Z,6.12
2023-02-27T07:01:08.821Z,5.96
2023-02-27T07:03:35.091Z,6.27
2023-02-27T07:06:01.349Z,6.19
2023-02-27T07:08:27.765Z,6.08
2023-02-27T07:10:54.007Z,6.09
2023-02-27T07:13:20.273Z,6.36
2023-02-27T07:15:46.570Z,6.44
2023-02-27T07:18:12.909Z,6.14
2023-02-27T07:20:39.186Z,6.02
2023-02-27T07:23:05.430Z,6.27
2023-02-27T07:25:31.680Z,6.18
2023-02-27T07:27:57.946Z,6.28
2023-02-27T07:30:24.188Z,6.51
2023-02-27T07:32:50.430Z,6.16
2023-02-27T07:35:16.697Z,6.38
2023-02-27T07:37:42.942Z,6.40
2023-02-27T07:40:09.226Z,6.60
2023-02-27T07:42:35.513Z,6.14
2023-02-27T07:45:01.769Z,6.69
2023-02-27T07:47:28.054Z,6.20
2023-02-27T07:49:54.311Z,6.55
2023-02-27T07:52:20.550Z,6.48
2023-02-27T07:54:46.805Z,6.61
2023-02-27T07:57:13.062Z,6.63
2023-02-27T07:59:39.306Z,6.17
2023-02-27T08:02:05.586Z,6.52
2023-02-27T08:04:31.908Z,6.60
2023-02-27T08:06:58.284Z,6.53
2023-02-27T08:09:24.533Z,6.38
2023-02-27T08:11:50.790Z,6.41
2023-02-27T08:14:17.044Z,6.42
2023-02-27T08:16:43.331Z,6.56
2023-02-27T08:19:09.577Z,6.65
2023-02-27T08:21:35.853Z,6.45
2023-02-27T08:24:02.099Z,6.86
2023-02-27T08:26:28.624Z,6.65
2023-02-27T08:28:55.114Z,6.82
2023-02-27T08:31:21.451Z,6.71
2023-02-27T08:33:49.626Z,6.54
2023-02-27T08:36:19.374Z,6.82
2023-02-27T08:38:45.786Z,6.60
2023-02-27T08:41:12.146Z,6.38
2023-02-27T08:43:38.390Z,6.61
2023-02-27T08:46:04.745Z,6.31
2023-02-27T08:48:31.013Z,6.72
2023-02-27T08:50:57.992Z,6.65
2023-02-27T08:53:24.313Z,6.65
2023-02-27T08:55:50.602Z,6.50
2023-02-27T08:58:18.107Z,6.94
2023-02-27T09:00:44.456Z,6.56
2023-02-27T09:03:10.709Z,6.49
2023-02-27T09:05:36.969Z,6.78
2023-02-27T09:08:03.221Z,6.63
2023-02-27T09:10:29.478Z,6.39
2023-02-27T09:12:55.726Z,6.81
2023-02-27T09:15:21.988Z,6.85
2023-02-27T09:17:48.230Z,6.65
2023-02-27T09:20:14.514Z,6.66
2023-02-27T09:22:40.765Z,6.61
2023-02-27T09:25:07.010Z,6.62
2023-02-27T09:27:33.262Z,6.59
2023-02-27T09:29:59.570Z,6.82
2023-02-27T09:32:25.909Z,6.70
2023-02-27T09:34:52.261Z,6.52
2023-02-27T09:37:18.546Z,6.81
2023-02-27T09:39:46.322Z,6.97
2023-02-27T09:42:12.707Z,6.87
2023-02-27T09:44:47.542Z,6.77
2023-02-27T09:47:13.983Z,6.49
2023-02-27T09:49:40.249Z,6.79
2023-02-27T09:52:06.508Z,6.70
2023-02-27T09:54:32.774Z,6.90
2023-02-27T09:56:59.042Z,6.78
2023-02-27T09:59:25.292Z,6.90
2023-02-27T10:01:51.558Z,6.78
2023-02-27T10:04:17.828Z,6.83
2023-02-27T10:06:44.095Z,6.37
2023-02-27T10:09:10.375Z,6.94
2023-02-27T10:11:36.632Z,6.49
2023-02-27T10:14:02.890Z,6.61
2023-02-27T10:16:29.584Z,6.72
2023-02-27T10:18:56.087Z,6.58
2023-02-27T10:21:22.351Z,6.86
2023-02-27T10:23:48.605Z,6.87
2023-02-27T10:26:14.859Z,6.85
2023-02-27T10:28:41.111Z,7.12
2023-02-27T10:31:07.422Z,7.19
2023-02-27T10:33:33.797Z,7.06
2023-02-27T10:36:02.137Z,7.08
2023-02-27T10:38:29.439Z,6.76
2023-02-27T10:40:55.692Z,6.63
2023-02-27T10:43:21.942Z,7.09
2023-02-27T10:45:48.206Z,6.68
2023-02-27T10:48:14.472Z,7.07
2023-02-27T10:50:40.742Z,6.83
2023-02-27T10:53:07.023Z,6.48
2023-02-27T10:55:33.285Z,6.86
2023-02-27T10:57:59.532Z,7.56
2023-02-27T11:00:25.787Z,7.44
2023-02-27T11:02:52.056Z,7.28
2023-02-27T11:05:18.316Z,7.00
2023-02-27T11:07:44.562Z,7.32
2023-02-27T11:10:10.802Z,7.22
2023-02-27T11:12:37.047Z,7.00
2023-02-27T11:15:03.313Z,7.22
2023-02-27T11:17:29.565Z,6.89
2023-02-27T11:19:55.828Z,7.26
2023-02-27T11:22:22.081Z,7.28
2023-02-27T11:24:48.320Z,6.78
2023-02-27T11:27:14.589Z,7.18
2023-02-27T11:29:40.842Z,6.90
2023-02-27T11:32:07.167Z,7.23
2023-02-27T11:34:33.421Z,7.08
2023-02-27T11:36:59.671Z,7.28
2023-02-27T11:39:25.923Z,7.49
2023-02-27T11:41:52.166Z,7.63
2023-02-27T11:44:18.691Z,7.34
2023-02-27T11:47:00.393Z,7.64
2023-02-27T11:49:26.643Z,7.68
2023-02-27T11:51:52.884Z,7.20
2023-02-27T11:54:19.162Z,7.25
2023-02-27T11:56:45.413Z,7.11
2023-02-27T11:59:11.673Z,7.65
2023-02-27T12:01:37.943Z,7.49
2023-02-27T12:04:04.225Z,7.26
2023-02-27T12:06:30.515Z,7.34
2023-02-27T12:08:56.779Z,7.81
2023-02-27T12:11:23.032Z,7.84
2023-02-27T12:13:49.274Z,7.74
2023-02-27T12:16:15.565Z,8.21
2023-02-27T12:18:41.828Z,7.62
2023-02-27T12:21:08.104Z,8.00
2023-02-27T12:23:34.358Z,8.46
2023-02-27T12:26:00.626Z,8.61
2023-02-27T12:28:26.986Z,8.33
2023-02-27T12:30:53.244Z,8.79
2023-02-27T12:33:19.486Z,8.72
2023-02-27T12:35:45.748Z,7.94
2023-02-27T12:38:12.013Z,7.60
2023-02-27T12:40:38.284Z,7.63
2023-02-27T12:43:04.531Z,7.76
2023-02-27T12:45:30.913Z,7.85
2023-02-27T12:47:57.170Z,8.32
2023-02-27T12:50:23.445Z,8.46
2023-02-27T12:52:49.703Z,8.66
2023-02-27T12:55:15.957Z,8.27
2023-02-27T12:57:42.203Z,8.07
2023-02-27T13:00:08.492Z,7.67
2023-02-27T13:02:34.746Z,8.29
2023-02-27T13:05:00.999Z,8.58
2023-02-27T13:07:27.273Z,8.01
2023-02-27T13:09:53.543Z,8.25
2023-02-27T13:12:19.784Z,8.79
2023-02-27T13:14:46.077Z,8.16
2023-02-27T13:17:12.372Z,8.04
2023-02-27T13:19:38.630Z,8.16
2023-02-27T13:22:04.886Z,9.16
2023-02-27T13:24:31.145Z,8.38
2023-02-27T13:26:57.399Z,7.90
2023-02-27T13:29:24.855Z,8.65
2023-02-27T13:31:51.221Z,8.27
2023-02-27T13:34:17.540Z,8.14
2023-02-27T13:36:43.814Z,9.01
2023-02-27T13:39:10.091Z,8.62
2023-02-27T13:41:36.375Z,8.29
2023-02-27T13:44:02.642Z,8.08
2023-02-27T13:46:28.910Z,8.57
2023-02-27T13:48:55.161Z,8.00
2023-02-27T13:51:21.421Z,8.60
2023-02-27T13:53:47.682Z,9.68
2023-02-27T13:56:13.918Z,9.01
2023-02-27T13:58:40.208Z,8.83
2023-02-27T14:01:06.493Z,8.42
2023-02-27T14:03:32.765Z,8.95
2023-02-27T14:05:59.022Z,9.04
2023-02-27T14:08:25.284Z,8.72
2023-02-27T14:10:51.551Z,8.61
2023-02-27T14:13:17.819Z,9.01
2023-02-27T14:15:44.091Z,8.95
2023-02-27T14:18:20.094Z,9.05
2023-02-27T14:20:49.145Z,8.71
2023-02-27T14:23:15.482Z,8.82
2023-02-27T14:25:41.761Z,9.39
2023-02-27T14:28:08.004Z,8.99
2023-02-27T14:30:34.270Z,9.25
2023-02-27T14:33:00.538Z,8.83
2023-02-27T14:35:26.832Z,8.94
2023-02-27T14:37:53.135Z,9.25
2023-02-27T14:40:29.161Z,8.46
2023-02-27T14:42:55.862Z,9.08
2023-02-27T14:45:24.258Z,8.77
2023-02-27T14:47:50.701Z,8.90
2023-02-27T14:50:16.986Z,9.33
2023-02-27T14:52:43.255Z,9.09
2023-02-27T14:55:09.497Z,8.93
2023-02-27T14:57:35.755Z,9.05
2023-02-27T15:00:02.133Z,8.87
2023-02-27T15:02:28.430Z,8.96
2023-02-27T15:04:54.760Z,8.76
2023-02-27T15:07:21.102Z,8.70
2023-02-27T15:09:47.362Z,8.54
2023-02-27T15:12:13.609Z,9.06
2023-02-27T15:14:39.906Z,8.99
2023-02-27T15:17:06.195Z,9.24
2023-02-27T15:19:32.468Z,9.21
2023-02-27T15:21:58.811Z,11.81
2023-02-27T15:24:25.105Z,14.96
2023-02-27T15:26:51.379Z,11.64
2023-02-27T15:29:17.640Z,9.99
2023-02-27T15:31:43.969Z,9.07
2023-02-27T15:34:10.334Z,9.40
2023-02-27T15:36:36.609Z,8.99
2023-02-27T15:39:02.874Z,9.52
2023-02-27T15:41:29.310Z,13.00
2023-02-27T15:43:55.827Z,14.66
2023-02-27T15:46:22.097Z,14.90
2023-02-27T15:48:48.361Z,18.65
2023-02-27T15:51:14.633Z,14.90
2023-02-27T15:53:42.806Z,15.53
2023-02-27T15:56:09.140Z,12.18
2023-02-27T15:58:35.485Z,11.12
2023-02-27T16:01:01.974Z,9.38
2023-02-27T16:03:28.289Z,9.89
2023-02-27T16:05:54.582Z,16.15
2023-02-27T16:08:20.874Z,18.74
2023-02-27T16:10:47.133Z,14.32
2023-02-27T16:13:13.396Z,9.07
2023-02-27T16:15:39.645Z,8.88
2023-02-27T16:18:05.886Z,9.32
2023-02-27T16:20:32.153Z,11.33
2023-02-27T16:22:58.398Z,13.34
2023-02-27T16:25:24.652Z,13.68
2023-02-27T16:27:50.923Z,12.73
2023-02-27T16:30:17.199Z,12.44
2023-02-27T16:32:43.512Z,10.35
2023-02-27T16:35:09.829Z,9.89
2023-02-27T16:37:36.113Z,9.28
2023-02-27T16:40:02.547Z,8.90
2023-02-27T16:42:28.806Z,9.04
2023-02-27T16:44:55.047Z,9.72
2023-02-27T16:47:21.302Z,9.29
2023-02-27T16:49:47.565Z,9.26
2023-02-27T16:52:13.854Z,9.43
2023-02-27T16:54:40.105Z,9.51
2023-02-27T16:57:06.372Z,9.16
2023-02-27T16:59:32.626Z,9.47
2023-02-27T17:01:58.894Z,9.34
2023-02-27T17:04:26.180Z,9.76
2023-02-27T17:06:52.544Z,9.23
2023-02-27T17:09:18.819Z,9.18
2023-02-27T17:11:45.078Z,9.54
2023-02-27T17:14:11.372Z,9.81
2023-02-27T17:16:37.683Z,10.33
2023-02-27T17:19:03.934Z,9.94
2023-02-27T17:21:30.197Z,10.12
2023-02-27T17:23:56.542Z,10.03
2023-02-27T17:26:22.801Z,9.92
2023-02-27T17:28:49.086Z,9.81
2023-02-27T17:31:15.393Z,10.47
2023-02-27T17:33:41.626Z,10.51
2023-02-27T17:36:07.873Z,9.75
2023-02-27T17:38:34.133Z,9.43
2023-02-27T17:41:00.385Z,9.86
2023-02-27T17:43:26.627Z,9.57
2023-02-27T17:45:52.905Z,10.17
2023-02-27T17:48:19.187Z,10.98
2023-02-27T17:50:45.452Z,12.22
2023-02-27T17:53:11.733Z,12.56
2023-02-27T17:55:39.283Z,17.12
2023-02-27T17:58:05.955Z,13.19
2023-02-27T18:00:32.205Z,13.12
2023-02-27T18:02:58.506Z,13.36
2023-02-27T18:05:24.784Z,12.06
2023-02-27T18:07:51.058Z,19.66
2023-02-27T18:10:17.321Z,13.77
2023-02-27T18:12:43.579Z,13.89
2023-02-27T18:15:09.826Z,10.41
2023-02-27T18:17:36.080Z,11.15
2023-02-27T18:20:02.360Z,10.45
2023-02-27T18:22:28.628Z,10.44
2023-02-27T18:24:54.884Z,11.13
2023-02-27T18:27:21.141Z,11.52
2023-02-27T18:29:47.417Z,11.29
2023-02-27T18:32:13.702Z,12.02
2023-02-27T18:34:40.015Z,11.70
2023-02-27T18:37:06.266Z,10.89
2023-02-27T18:39:32.515Z,11.18
2023-02-27T18:41:58.775Z,10.89
2023-02-27T18:44:25.050Z,11.11
2023-02-27T18:46:51.351Z,11.21
2023-02-27T18:49:17.615Z,11.28
2023-02-27T18:51:43.882Z,11.54
2023-02-27T18:54:10.131Z,11.21
2023-02-27T18:56:36.398Z,11.15
2023-02-27T18:59:02.668Z,11.18
2023-02-27T19:01:28.946Z,11.53
2023-02-27T19:03:55.249Z,11.07
2023-02-27T19:06:21.518Z,11.08
2023-02-27T19:08:47.791Z,10.93
2023-02-27T19:11:14.036Z,10.97
2023-02-27T19:13:40.291Z,11.25
2023-02-27T19:16:06.599Z,11.30
2023-02-27T19:18:32.879Z,11.64
2023-02-27T19:20:59.148Z,11.54
2023-02-27T19:23:25.406Z,11.51
2023-02-27T19:25:51.666Z,11.17
2023-02-27T19:28:17.926Z,11.09
2023-02-27T19:30:44.185Z,11.49
2023-02-27T19:33:10.429Z,10.76
2023-02-27T19:35:36.743Z,11.26
2023-02-27T19:38:03.046Z,11.37
2023-02-27T19:40:29.293Z,11.56
2023-02-27T19:42:55.563Z,11.48
2023-02-27T19:45:21.823Z,11.64
2023-02-27T19:47:48.083Z,11.55
2023-02-27T19:50:14.383Z,12.22
2023-02-27T19:52:40.660Z,12.55
2023-02-27T19:55:06.938Z,11.79
2023-02-27T19:57:33.181Z,11.67
2023-02-27T19:59:59.448Z,11.17
2023-02-27T20:02:25.710Z,11.16
2023-02-27T20:04:51.976Z,11.49
2023-02-27T20:07:18.241Z,11.71
2023-02-27T20:09:44.485Z,11.67
2023-02-27T20:12:10.754Z,11.13
2023-02-27T20:14:37.022Z,10.93
2023-02-27T20:17:03.276Z,10.42
2023-02-27T20:19:29.532Z,10.99
2023-02-27T20:21:55.828Z,10.29
2023-02-27T20:24:22.095Z,10.24
2023-02-27T20:26:48.360Z,10.55
2023-02-27T20:29:14.620Z,10.36
2023-02-27T20:31:40.913Z,10.36
2023-02-27T20:34:07.206Z,10.69
2023-02-27T20:36:33.496Z,10.31
2023-02-27T20:38:59.777Z,10.73
2023-02-27T20:41:29.045Z,10.57
2023-02-27T20:43:55.840Z,10.37
2023-02-27T20:46:22.191Z,10.64
2023-02-27T20:48:48.518Z,10.26
2023-02-27T20:51:14.781Z,10.06
2023-02-27T20:53:41.031Z,10.36
2023-02-27T20:56:07.297Z,10.25
2023-02-27T20:58:33.557Z,10.29
2023-02-27T21:00:59.829Z,10.79
2023-02-27T21:03:26.353Z,9.99
2023-02-27T21:05:53.901Z,10.19
2023-02-27T21:08:20.162Z,10.43
2023-02-27T21:10:46.414Z,10.07
2023-02-27T21:13:12.664Z,10.32
2023-02-27T21:15:38.940Z,10.57
2023-02-27T21:18:05.219Z,9.92
2023-02-27T21:20:31.541Z,10.44
2023-02-27T21:22:57.816Z,9.97
2023-02-27T21:25:24.078Z,10.11
2023-02-27T21:27:50.462Z,10.51
2023-02-27T21:30:16.715Z,10.06
2023-02-27T21:32:43.028Z,10.24
2023-02-27T21:35:09.317Z,9.71
2023-02-27T21:37:35.562Z,10.17
2023-02-27T21:40:01.847Z,9.96
2023-02-27T21:42:28.105Z,10.15
2023-02-27T21:44:54.367Z,10.23
2023-02-27T21:47:20.630Z,10.09
2023-02-27T21:49:48.002Z,10.13
2023-02-27T21:52:14.266Z,10.02
2023-02-27T21:54:40.512Z,9.84
2023-02-27T21:57:06.753Z,9.93
2023-02-27T21:59:33.001Z,10.23
2023-02-27T22:01:59.397Z,9.98
2023-02-27T22:04:25.722Z,9.85
2023-02-27T22:06:51.967Z,9.98
2023-02-27T22:09:18.209Z,9.92
2023-02-27T22:11:44.450Z,10.13
2023-02-27T22:14:10.721Z,10.22
2023-02-27T22:16:36.970Z,9.99
2023-02-27T22:19:03.219Z,9.82
2023-02-27T22:21:29.858Z,9.99
2023-02-27T22:23:56.434Z,10.00
2023-02-27T22:26:22.710Z,10.25
2023-02-27T22:28:48.969Z,10.69
2023-02-27T22:31:15.272Z,10.96
2023-02-27T22:33:41.562Z,10.44
2023-02-27T22:36:07.814Z,10.27
2023-02-27T22:38:34.120Z,10.14
2023-02-27T22:41:00.378Z,10.14
2023-02-27T22:43:26.642Z,10.12
2023-02-27T22:45:52.907Z,10.08
2023-02-27T22:48:19.154Z,10.15
2023-02-27T22:50:45.516Z,10.09
2023-02-27T22:53:11.757Z,9.83
2023-02-27T22:55:38.004Z,10.28
2023-02-27T22:58:04.271Z,10.05
2023-02-27T23:00:30.507Z,9.87
2023-02-27T23:02:56.769Z,10.22
2023-02-27T23:05:23.013Z,10.10
2023-02-27T23:07:49.261Z,10.41
2023-02-27T23:10:15.506Z,10.76
2023-02-27T23:12:41.779Z,10.59
2023-02-27T23:15:08.068Z,10.87
2023-02-27T23:17:34.329Z,10.45
2023-02-27T23:20:00.585Z,10.47
2023-02-27T23:22:26.840Z,10.50
2023-02-27T23:24:53.082Z,10.36
2023-02-27T23:27:25.754Z,10.35
2023-02-27T23:29:52.289Z,10.52
2023-02-27T23:32:18.584Z,10.87
2023-02-27T23:34:49.679Z,10.92
2023-02-27T23:37:16.231Z,10.70
2023-02-27T23:39:42.480Z,10.65
2023-02-27T23:42:08.730Z,10.79
2023-02-27T23:44:34.982Z,10.45
2023-02-27T23:47:01.278Z,10.82
2023-02-27T23:49:27.537Z,10.96
2023-02-27T23:51:53.783Z,10.83
2023-02-27T23:54:20.040Z,11.39
2023-02-27T23:56:46.302Z,11.57
2023-02-27T23:59:12.564Z,11.19
